Clay, California
Current Conditions -  °F | °C
As of 4:15 PM on Friday 31 Oct 2014 (Local Time) from KMHR Reporting Station
Overcast Overcast  
Wind Chill: 59°   Ceiling: 1300
Heat Index: 59°   Visibility: 2mi
Dew Point: 59°   Wind: 9mph
Humidity: 100%   Direction: 250°WSW
Pressure: 29.78"   Gusts: NA
Location:  38.3418°N, 121.11°W
Report Text: KMHR 312315Z 25008KT 2SM BKN013 OVC020 15/15 A2978 -RA BR
Loading
Personal Weather Stations






























Interactive Weather Map
Tropical Storm Tracking
New forecast layout! Learn more

10-Day Weather Forecast

Advertisements
Track Severe Weather on mobile